sensor_id;sensor_type;location;lat;lon;timestamp;temperature;humidity
35277;DHT22;21401;50.878;8.050;2022-10-16T00:00:41;12.40;99.90
35277;DHT22;21401;50.878;8.050;2022-10-16T00:03:08;12.50;99.90
35277;DHT22;21401;50.878;8.050;2022-10-16T00:05:39;12.40;99.90
35277;DHT22;21401;50.878;8.050;2022-10-16T00:08:06;12.40;99.90
35277;DHT22;21401;50.878;8.050;2022-10-16T00:10:34;12.40;99.90
35277;DHT22;21401;50.878;8.050;2022-10-16T00:13:03;12.40;99.90
35277;DHT22;21401;50.878;8.050;2022-10-16T00:15:28;12.30;99.90
35277;DHT22;21401;50.878;8.050;2022-10-16T00:17:54;12.30;99.90
35277;DHT22;21401;50.878;8.050;2022-10-16T00:20:19;12.40;99.90
35277;DHT22;21401;50.878;8.050;2022-10-16T00:22:50;12.40;99.90
35277;DHT22;21401;50.878;8.050;2022-10-16T00:25:15;12.40;99.90
35277;DHT22;21401;50.878;8.050;2022-10-16T00:27:43;12.30;99.90
35277;DHT22;21401;50.878;8.050;2022-10-16T00:30:11;12.40;99.90
35277;DHT22;21401;50.878;8.050;2022-10-16T00:32:37;12.50;99.90
35277;DHT22;21401;50.878;8.050;2022-10-16T00:35:02;12.50;99.90
35277;DHT22;21401;50.878;8.050;2022-10-16T00:37:29;12.40;99.90
35277;DHT22;21401;50.878;8.050;2022-10-16T00:39:56;12.40;99.90
35277;DHT22;21401;50.878;8.050;2022-10-16T00:42:22;12.50;99.90
35277;DHT22;21401;50.878;8.050;2022-10-16T00:44:55;12.40;99.90
35277;DHT22;21401;50.878;8.050;2022-10-16T00:47:39;12.40;99.90
35277;DHT22;21401;50.878;8.050;2022-10-16T00:50:28;12.40;99.90
35277;DHT22;21401;50.878;8.050;2022-10-16T00:52:56;12.40;99.90
35277;DHT22;21401;50.878;8.050;2022-10-16T00:55:24;12.30;99.90
35277;DHT22;21401;50.878;8.050;2022-10-16T00:57:53;12.40;99.90
35277;DHT22;21401;50.878;8.050;2022-10-16T01:00:24;12.40;99.90
35277;DHT22;21401;50.878;8.050;2022-10-16T01:02:58;12.40;99.90
35277;DHT22;21401;50.878;8.050;2022-10-16T01:05:30;12.50;99.90
35277;DHT22;21401;50.878;8.050;2022-10-16T01:08:18;12.30;99.90
35277;DHT22;21401;50.878;8.050;2022-10-16T01:10:52;12.20;99.90
35277;DHT22;21401;50.878;8.050;2022-10-16T01:13:35;12.20;99.90
35277;DHT22;21401;50.878;8.050;2022-10-16T01:18:44;12.20;99.90
35277;DHT22;21401;50.878;8.050;2022-10-16T01:21:28;12.20;99.90
35277;DHT22;21401;50.878;8.050;2022-10-16T01:24:02;12.30;99.90
35277;DHT22;21401;50.878;8.050;2022-10-16T01:26:40;12.50;99.90
35277;DHT22;21401;50.878;8.050;2022-10-16T01:29:21;12.70;99.90
35277;DHT22;21401;50.878;8.050;2022-10-16T01:32:01;12.70;99.90
35277;DHT22;21401;50.878;8.050;2022-10-16T01:34:37;12.60;99.90
35277;DHT22;21401;50.878;8.050;2022-10-16T01:37:12;12.30;99.90
35277;DHT22;21401;50.878;8.050;2022-10-16T01:39:45;12.10;99.90
35277;DHT22;21401;50.878;8.050;2022-10-16T01:42:22;12.00;99.90
35277;DHT22;21401;50.878;8.050;2022-10-16T01:44:51;12.10;99.90
35277;DHT22;21401;50.878;8.050;2022-10-16T01:47:21;12.20;99.90
35277;DHT22;21401;50.878;8.050;2022-10-16T01:49:50;12.30;99.90
35277;DHT22;21401;50.878;8.050;2022-10-16T01:52:21;12.30;99.90
35277;DHT22;21401;50.878;8.050;2022-10-16T01:54:53;12.50;99.90
35277;DHT22;21401;50.878;8.050;2022-10-16T01:57:21;12.90;99.90
35277;DHT22;21401;50.878;8.050;2022-10-16T01:59:52;12.60;99.90
35277;DHT22;21401;50.878;8.050;2022-10-16T02:02:20;12.70;99.90
35277;DHT22;21401;50.878;8.050;2022-10-16T02:04:51;12.60;99.90
35277;DHT22;21401;50.878;8.050;2022-10-16T02:07:18;12.30;99.90
35277;DHT22;21401;50.878;8.050;2022-10-16T02:09:44;12.10;99.90
35277;DHT22;21401;50.878;8.050;2022-10-16T02:12:20;12.00;99.90
35277;DHT22;21401;50.878;8.050;2022-10-16T02:14:48;12.10;99.90
35277;DHT22;21401;50.878;8.050;2022-10-16T02:17:16;12.00;99.90
35277;DHT22;21401;50.878;8.050;2022-10-16T02:19:44;11.90;99.90
35277;DHT22;21401;50.878;8.050;2022-10-16T02:22:16;12.10;99.90
35277;DHT22;21401;50.878;8.050;2022-10-16T02:25:10;12.10;99.90
35277;DHT22;21401;50.878;8.050;2022-10-16T02:30:21;12.00;99.90
35277;DHT22;21401;50.878;8.050;2022-10-16T02:32:52;11.90;99.90
35277;DHT22;21401;50.878;8.050;2022-10-16T02:35:20;11.90;99.90
35277;DHT22;21401;50.878;8.050;2022-10-16T02:37:47;11.70;99.90
35277;DHT22;21401;50.878;8.050;2022-10-16T02:40:17;11.70;99.90
35277;DHT22;21401;50.878;8.050;2022-10-16T02:42:53;11.70;99.90
35277;DHT22;21401;50.878;8.050;2022-10-16T02:45:19;11.60;99.90
35277;DHT22;21401;50.878;8.050;2022-10-16T02:47:49;11.60;99.90
35277;DHT22;21401;50.878;8.050;2022-10-16T02:50:15;11.60;99.90
35277;DHT22;21401;50.878;8.050;2022-10-16T02:52:41;11.40;99.90
35277;DHT22;21401;50.878;8.050;2022-10-16T02:55:07;11.40;99.90
35277;DHT22;21401;50.878;8.050;2022-10-16T02:57:32;11.40;99.90
35277;DHT22;21401;50.878;8.050;2022-10-16T02:59:58;11.30;99.90
35277;DHT22;21401;50.878;8.050;2022-10-16T03:02:24;11.30;99.90
35277;DHT22;21401;50.878;8.050;2022-10-16T03:04:49;11.30;99.90
35277;DHT22;21401;50.878;8.050;2022-10-16T03:07:15;11.30;99.90
35277;DHT22;21401;50.878;8.050;2022-10-16T03:09:41;11.40;99.90
35277;DHT22;21401;50.878;8.050;2022-10-16T03:12:11;11.40;99.90
35277;DHT22;21401;50.878;8.050;2022-10-16T03:14:39;11.50;99.90
35277;DHT22;21401;50.878;8.050;2022-10-16T03:17:05;11.40;99.90
35277;DHT22;21401;50.878;8.050;2022-10-16T03:19:34;11.30;99.90
35277;DHT22;21401;50.878;8.050;2022-10-16T03:22:02;11.20;99.90
35277;DHT22;21401;50.878;8.050;2022-10-16T03:24:30;11.20;99.90
35277;DHT22;21401;50.878;8.050;2022-10-16T03:26:58;11.20;99.90
35277;DHT22;21401;50.878;8.050;2022-10-16T03:29:26;11.20;99.90
35277;DHT22;21401;50.878;8.050;2022-10-16T03:31:57;11.20;99.90
35277;DHT22;21401;50.878;8.050;2022-10-16T03:34:25;11.10;99.90
35277;DHT22;21401;50.878;8.050;2022-10-16T03:36:55;11.10;99.90
35277;DHT22;21401;50.878;8.050;2022-10-16T03:39:25;11.10;99.90
35277;DHT22;21401;50.878;8.050;2022-10-16T03:41:51;11.10;99.90
35277;DHT22;21401;50.878;8.050;2022-10-16T03:44:19;11.00;99.90
35277;DHT22;21401;50.878;8.050;2022-10-16T03:46:44;11.00;99.90
35277;DHT22;21401;50.878;8.050;2022-10-16T03:49:10;11.00;99.90
35277;DHT22;21401;50.878;8.050;2022-10-16T03:51:40;11.10;99.90
35277;DHT22;21401;50.878;8.050;2022-10-16T03:54:05;11.10;99.90
35277;DHT22;21401;50.878;8.050;2022-10-16T03:56:33;11.20;99.90
35277;DHT22;21401;50.878;8.050;2022-10-16T03:58:58;11.20;99.90
35277;DHT22;21401;50.878;8.050;2022-10-16T04:01:24;11.10;99.90
35277;DHT22;21401;50.878;8.050;2022-10-16T04:03:52;11.20;99.90
35277;DHT22;21401;50.878;8.050;2022-10-16T04:06:22;11.20;99.90
35277;DHT22;21401;50.878;8.050;2022-10-16T04:08:47;11.20;99.90
35277;DHT22;21401;50.878;8.050;2022-10-16T04:11:13;11.20;99.90
35277;DHT22;21401;50.878;8.050;2022-10-16T04:13:39;11.20;99.90
35277;DHT22;21401;50.878;8.050;2022-10-16T04:16:04;11.20;99.90
35277;DHT22;21401;50.878;8.050;2022-10-16T04:18:30;11.10;99.90
35277;DHT22;21401;50.878;8.050;2022-10-16T04:20:55;11.20;99.90
35277;DHT22;21401;50.878;8.050;2022-10-16T04:23:21;11.20;99.90
35277;DHT22;21401;50.878;8.050;2022-10-16T04:25:48;11.20;99.90
35277;DHT22;21401;50.878;8.050;2022-10-16T04:28:13;11.50;99.90
35277;DHT22;21401;50.878;8.050;2022-10-16T04:30:44;11.70;99.90
35277;DHT22;21401;50.878;8.050;2022-10-16T04:33:12;11.80;99.90
35277;DHT22;21401;50.878;8.050;2022-10-16T04:35:38;11.80;99.90
35277;DHT22;21401;50.878;8.050;2022-10-16T04:38:04;11.90;99.90
35277;DHT22;21401;50.878;8.050;2022-10-16T04:40:32;12.00;99.90
35277;DHT22;21401;50.878;8.050;2022-10-16T04:42:58;12.20;99.90
35277;DHT22;21401;50.878;8.050;2022-10-16T04:45:24;12.40;99.90
35277;DHT22;21401;50.878;8.050;2022-10-16T04:47:52;12.50;99.90
35277;DHT22;21401;50.878;8.050;2022-10-16T04:50:18;12.60;99.90
35277;DHT22;21401;50.878;8.050;2022-10-16T04:52:46;12.40;99.90
35277;DHT22;21401;50.878;8.050;2022-10-16T04:55:11;12.20;99.90
35277;DHT22;21401;50.878;8.050;2022-10-16T04:57:37;12.40;99.90
35277;DHT22;21401;50.878;8.050;2022-10-16T05:00:03;12.50;99.90
35277;DHT22;21401;50.878;8.050;2022-10-16T05:02:29;12.60;99.90
35277;DHT22;21401;50.878;8.050;2022-10-16T05:04:54;12.50;99.90
35277;DHT22;21401;50.878;8.050;2022-10-16T05:07:20;12.50;99.90
35277;DHT22;21401;50.878;8.050;2022-10-16T05:09:45;12.40;99.90
35277;DHT22;21401;50.878;8.050;2022-10-16T05:12:13;12.40;99.90
35277;DHT22;21401;50.878;8.050;2022-10-16T05:14:39;12.50;99.90
35277;DHT22;21401;50.878;8.050;2022-10-16T05:17:09;12.40;99.90
35277;DHT22;21401;50.878;8.050;2022-10-16T05:19:35;12.50;99.90
35277;DHT22;21401;50.878;8.050;2022-10-16T05:22:00;12.60;99.90
35277;DHT22;21401;50.878;8.050;2022-10-16T05:24:28;12.50;99.90
35277;DHT22;21401;50.878;8.050;2022-10-16T05:26:54;12.40;99.90
35277;DHT22;21401;50.878;8.050;2022-10-16T05:29:22;12.40;99.90
35277;DHT22;21401;50.878;8.050;2022-10-16T05:31:54;12.40;99.90
35277;DHT22;21401;50.878;8.050;2022-10-16T05:34:20;12.40;99.90
35277;DHT22;21401;50.878;8.050;2022-10-16T05:36:46;12.30;99.90
35277;DHT22;21401;50.878;8.050;2022-10-16T05:39:12;12.30;99.90
35277;DHT22;21401;50.878;8.050;2022-10-16T05:41:41;12.20;99.90
35277;DHT22;21401;50.878;8.050;2022-10-16T05:44:12;12.30;99.90
35277;DHT22;21401;50.878;8.050;2022-10-16T05:46:40;12.50;99.90
35277;DHT22;21401;50.878;8.050;2022-10-16T05:49:05;12.70;99.90
35277;DHT22;21401;50.878;8.050;2022-10-16T05:51:33;12.70;99.90
35277;DHT22;21401;50.878;8.050;2022-10-16T05:54:01;12.60;99.90
35277;DHT22;21401;50.878;8.050;2022-10-16T05:56:29;12.50;99.90
35277;DHT22;21401;50.878;8.050;2022-10-16T05:58:54;12.50;99.90
35277;DHT22;21401;50.878;8.050;2022-10-16T06:01:20;12.40;99.90
35277;DHT22;21401;50.878;8.050;2022-10-16T06:03:52;12.40;99.90
35277;DHT22;21401;50.878;8.050;2022-10-16T06:06:22;12.30;99.90
35277;DHT22;21401;50.878;8.050;2022-10-16T06:08:49;12.40;99.90
35277;DHT22;21401;50.878;8.050;2022-10-16T06:11:21;12.50;99.90
35277;DHT22;21401;50.878;8.050;2022-10-16T06:13:54;12.60;99.90
35277;DHT22;21401;50.878;8.050;2022-10-16T06:16:23;12.70;99.90
35277;DHT22;21401;50.878;8.050;2022-10-16T06:18:51;12.80;99.90
35277;DHT22;21401;50.878;8.050;2022-10-16T06:21:19;12.90;99.90
35277;DHT22;21401;50.878;8.050;2022-10-16T06:23:46;12.90;99.90
35277;DHT22;21401;50.878;8.050;2022-10-16T06:26:16;13.00;99.90
35277;DHT22;21401;50.878;8.050;2022-10-16T06:28:41;13.00;99.90
35277;DHT22;21401;50.878;8.050;2022-10-16T06:31:08;13.10;99.90
35277;DHT22;21401;50.878;8.050;2022-10-16T06:33:35;13.00;99.90
35277;DHT22;21401;50.878;8.050;2022-10-16T06:36:06;13.10;99.90
35277;DHT22;21401;50.878;8.050;2022-10-16T06:38:33;13.10;99.90
35277;DHT22;21401;50.878;8.050;2022-10-16T06:40:59;13.00;99.90
35277;DHT22;21401;50.878;8.050;2022-10-16T06:43:25;13.00;99.90
35277;DHT22;21401;50.878;8.050;2022-10-16T06:45:55;13.10;99.90
35277;DHT22;21401;50.878;8.050;2022-10-16T06:48:21;13.10;99.90
35277;DHT22;21401;50.878;8.050;2022-10-16T06:50:59;13.20;99.90
35277;DHT22;21401;50.878;8.050;2022-10-16T06:53:27;13.30;99.90
35277;DHT22;21401;50.878;8.050;2022-10-16T06:55:53;13.30;99.90
35277;DHT22;21401;50.878;8.050;2022-10-16T06:58:19;13.40;99.90
35277;DHT22;21401;50.878;8.050;2022-10-16T07:00:44;13.50;99.90
35277;DHT22;21401;50.878;8.050;2022-10-16T07:03:10;13.50;99.90
35277;DHT22;21401;50.878;8.050;2022-10-16T07:05:42;13.50;99.90
35277;DHT22;21401;50.878;8.050;2022-10-16T07:08:08;13.50;99.90
35277;DHT22;21401;50.878;8.050;2022-10-16T07:10:37;13.50;99.90
35277;DHT22;21401;50.878;8.050;2022-10-16T07:13:05;13.50;99.90
35277;DHT22;21401;50.878;8.050;2022-10-16T07:15:32;13.50;99.90
35277;DHT22;21401;50.878;8.050;2022-10-16T07:17:58;13.50;99.90
35277;DHT22;21401;50.878;8.050;2022-10-16T07:20:26;13.50;99.90
35277;DHT22;21401;50.878;8.050;2022-10-16T07:22:51;13.50;99.90
35277;DHT22;21401;50.878;8.050;2022-10-16T07:25:17;13.50;99.90
35277;DHT22;21401;50.878;8.050;2022-10-16T07:27:43;13.60;99.90
35277;DHT22;21401;50.878;8.050;2022-10-16T07:30:09;13.60;99.90
35277;DHT22;21401;50.878;8.050;2022-10-16T07:32:37;13.70;99.90
35277;DHT22;21401;50.878;8.050;2022-10-16T07:35:03;13.70;99.90
35277;DHT22;21401;50.878;8.050;2022-10-16T07:37:31;13.70;99.90
35277;DHT22;21401;50.878;8.050;2022-10-16T07:39:57;13.80;99.90
35277;DHT22;21401;50.878;8.050;2022-10-16T07:42:24;13.80;99.90
35277;DHT22;21401;50.878;8.050;2022-10-16T07:44:50;13.90;99.90
35277;DHT22;21401;50.878;8.050;2022-10-16T07:47:16;13.90;99.90
35277;DHT22;21401;50.878;8.050;2022-10-16T07:49:41;13.90;99.90
35277;DHT22;21401;50.878;8.050;2022-10-16T07:52:07;14.00;99.90
35277;DHT22;21401;50.878;8.050;2022-10-16T07:54:34;14.10;99.90
35277;DHT22;21401;50.878;8.050;2022-10-16T07:57:00;14.10;99.90
35277;DHT22;21401;50.878;8.050;2022-10-16T07:59:25;14.20;99.90
35277;DHT22;21401;50.878;8.050;2022-10-16T08:01:51;14.30;99.90
35277;DHT22;21401;50.878;8.050;2022-10-16T08:04:17;14.30;99.90
35277;DHT22;21401;50.878;8.050;2022-10-16T08:06:42;14.40;99.90
35277;DHT22;21401;50.878;8.050;2022-10-16T08:09:09;14.40;99.90
35277;DHT22;21401;50.878;8.050;2022-10-16T08:11:34;14.40;99.90
35277;DHT22;21401;50.878;8.050;2022-10-16T08:14:00;14.30;99.90
35277;DHT22;21401;50.878;8.050;2022-10-16T08:16:26;14.40;99.90
35277;DHT22;21401;50.878;8.050;2022-10-16T08:18:51;14.40;99.90
35277;DHT22;21401;50.878;8.050;2022-10-16T08:21:21;14.50;99.90
35277;DHT22;21401;50.878;8.050;2022-10-16T08:23:49;14.50;99.90
35277;DHT22;21401;50.878;8.050;2022-10-16T08:26:15;14.60;99.90
35277;DHT22;21401;50.878;8.050;2022-10-16T08:28:43;14.70;99.90
35277;DHT22;21401;50.878;8.050;2022-10-16T08:31:11;14.80;99.90
35277;DHT22;21401;50.878;8.050;2022-10-16T08:33:38;14.90;99.90
35277;DHT22;21401;50.878;8.050;2022-10-16T08:36:05;15.00;99.90
35277;DHT22;21401;50.878;8.050;2022-10-16T08:38:33;15.00;99.90
35277;DHT22;21401;50.878;8.050;2022-10-16T08:49:17;16.10;99.90
35277;DHT22;21401;50.878;8.050;2022-10-16T08:51:43;17.10;99.90
35277;DHT22;21401;50.878;8.050;2022-10-16T08:56:57;16.20;99.90
35277;DHT22;21401;50.878;8.050;2022-10-16T08:59:26;17.60;99.90
35277;DHT22;21401;50.878;8.050;2022-10-16T09:01:52;17.50;99.90
35277;DHT22;21401;50.878;8.050;2022-10-16T09:07:24;15.60;99.90
35277;DHT22;21401;50.878;8.050;2022-10-16T09:10:01;15.40;99.90
35277;DHT22;21401;50.878;8.050;2022-10-16T09:12:39;15.40;99.90
35277;DHT22;21401;50.878;8.050;2022-10-16T09:18:15;15.90;99.90
35277;DHT22;21401;50.878;8.050;2022-10-16T09:23:31;16.30;99.90
35277;DHT22;21401;50.878;8.050;2022-10-16T09:26:00;16.10;99.90
35277;DHT22;21401;50.878;8.050;2022-10-16T09:28:27;16.60;99.90
35277;DHT22;21401;50.878;8.050;2022-10-16T09:30:53;16.20;99.90
35277;DHT22;21401;50.878;8.050;2022-10-16T09:33:23;16.40;99.90
35277;DHT22;21401;50.878;8.050;2022-10-16T09:35:54;16.40;99.90
35277;DHT22;21401;50.878;8.050;2022-10-16T09:38:35;17.00;99.90
35277;DHT22;21401;50.878;8.050;2022-10-16T09:41:20;17.30;99.90
35277;DHT22;21401;50.878;8.050;2022-10-16T09:43:47;17.30;99.90
35277;DHT22;21401;50.878;8.050;2022-10-16T09:46:35;16.50;99.90
35277;DHT22;21401;50.878;8.050;2022-10-16T09:49:03;16.30;99.90
35277;DHT22;21401;50.878;8.050;2022-10-16T09:51:35;16.00;99.90
35277;DHT22;21401;50.878;8.050;2022-10-16T09:54:21;15.90;99.90
35277;DHT22;21401;50.878;8.050;2022-10-16T09:56:47;16.00;99.90
35277;DHT22;21401;50.878;8.050;2022-10-16T09:59:22;16.00;99.90
35277;DHT22;21401;50.878;8.050;2022-10-16T10:01:53;16.10;99.90
35277;DHT22;21401;50.878;8.050;2022-10-16T10:04:22;16.10;99.90
35277;DHT22;21401;50.878;8.050;2022-10-16T10:06:57;16.40;99.90
35277;DHT22;21401;50.878;8.050;2022-10-16T10:09:31;16.90;99.90
35277;DHT22;21401;50.878;8.050;2022-10-16T10:12:00;17.30;99.90
35277;DHT22;21401;50.878;8.050;2022-10-16T10:14:35;17.20;99.90
35277;DHT22;21401;50.878;8.050;2022-10-16T10:30:45;19.00;99.90
35277;DHT22;21401;50.878;8.050;2022-10-16T10:36:22;19.30;99.90
35277;DHT22;21401;50.878;8.050;2022-10-16T10:39:41;19.00;99.90
35277;DHT22;21401;50.878;8.050;2022-10-16T10:45:18;20.30;99.90
35277;DHT22;21401;50.878;8.050;2022-10-16T10:56:55;17.90;99.90
35277;DHT22;21401;50.878;8.050;2022-10-16T11:07:21;20.40;99.90
35277;DHT22;21401;50.878;8.050;2022-10-16T11:10:03;21.20;99.90
35277;DHT22;21401;50.878;8.050;2022-10-16T11:12:36;20.60;99.90
35277;DHT22;21401;50.878;8.050;2022-10-16T11:15:11;20.50;99.90
35277;DHT22;21401;50.878;8.050;2022-10-16T11:20:26;19.50;99.90
35277;DHT22;21401;50.878;8.050;2022-10-16T11:25:46;17.80;99.90
35277;DHT22;21401;50.878;8.050;2022-10-16T11:36:38;17.80;99.90
35277;DHT22;21401;50.878;8.050;2022-10-16T11:41:47;18.20;99.90
35277;DHT22;21401;50.878;8.050;2022-10-16T11:50:03;18.30;99.90
35277;DHT22;21401;50.878;8.050;2022-10-16T11:52:40;18.10;99.90
35277;DHT22;21401;50.878;8.050;2022-10-16T11:57:50;17.90;99.90
35277;DHT22;21401;50.878;8.050;2022-10-16T12:00:27;18.00;99.90
35277;DHT22;21401;50.878;8.050;2022-10-16T12:08:16;18.00;99.90
35277;DHT22;21401;50.878;8.050;2022-10-16T12:10:46;17.80;99.90
35277;DHT22;21401;50.878;8.050;2022-10-16T12:13:32;17.60;99.90
35277;DHT22;21401;50.878;8.050;2022-10-16T12:18:47;17.70;99.90
35277;DHT22;21401;50.878;8.050;2022-10-16T12:21:14;17.70;99.90
35277;DHT22;21401;50.878;8.050;2022-10-16T12:26:24;18.10;99.90
35277;DHT22;21401;50.878;8.050;2022-10-16T12:28:50;18.00;99.90
35277;DHT22;21401;50.878;8.050;2022-10-16T12:31:19;18.00;99.90
35277;DHT22;21401;50.878;8.050;2022-10-16T12:34:03;18.00;99.90
35277;DHT22;21401;50.878;8.050;2022-10-16T12:36:35;18.00;99.90
35277;DHT22;21401;50.878;8.050;2022-10-16T12:39:01;18.00;99.90
35277;DHT22;21401;50.878;8.050;2022-10-16T12:41:38;17.90;99.90
35277;DHT22;21401;50.878;8.050;2022-10-16T12:44:20;17.90;99.90
35277;DHT22;21401;50.878;8.050;2022-10-16T12:46:46;18.00;99.90
35277;DHT22;21401;50.878;8.050;2022-10-16T12:51:41;18.10;99.90
35277;DHT22;21401;50.878;8.050;2022-10-16T12:54:56;18.20;99.90
35277;DHT22;21401;50.878;8.050;2022-10-16T12:57:39;18.30;99.90
35277;DHT22;21401;50.878;8.050;2022-10-16T13:00:24;18.20;99.90
35277;DHT22;21401;50.878;8.050;2022-10-16T13:14:04;18.00;99.90
35277;DHT22;21401;50.878;8.050;2022-10-16T13:22:12;18.20;99.90
35277;DHT22;21401;50.878;8.050;2022-10-16T13:27:51;18.20;99.90
35277;DHT22;21401;50.878;8.050;2022-10-16T13:30:22;18.20;99.90
35277;DHT22;21401;50.878;8.050;2022-10-16T13:32:50;18.20;99.90
35277;DHT22;21401;50.878;8.050;2022-10-16T13:37:48;18.30;99.90
35277;DHT22;21401;50.878;8.050;2022-10-16T13:40:24;18.20;99.90
35277;DHT22;21401;50.878;8.050;2022-10-16T13:42:54;18.20;99.90
35277;DHT22;21401;50.878;8.050;2022-10-16T13:45:21;18.20;99.90
35277;DHT22;21401;50.878;8.050;2022-10-16T13:47:47;18.10;99.90
35277;DHT22;21401;50.878;8.050;2022-10-16T13:50:16;18.00;99.90
35277;DHT22;21401;50.878;8.050;2022-10-16T13:52:44;17.90;99.90
35277;DHT22;21401;50.878;8.050;2022-10-16T13:55:15;17.90;99.90
35277;DHT22;21401;50.878;8.050;2022-10-16T13:57:41;17.90;99.90
35277;DHT22;21401;50.878;8.050;2022-10-16T14:00:21;17.90;99.90
35277;DHT22;21401;50.878;8.050;2022-10-16T14:02:57;17.90;99.90
35277;DHT22;21401;50.878;8.050;2022-10-16T14:05:23;17.80;99.90
35277;DHT22;21401;50.878;8.050;2022-10-16T14:07:50;17.80;99.90
35277;DHT22;21401;50.878;8.050;2022-10-16T14:10:34;17.90;99.90
35277;DHT22;21401;50.878;8.050;2022-10-16T14:13:02;17.90;99.90
35277;DHT22;21401;50.878;8.050;2022-10-16T14:15:30;18.00;99.90
35277;DHT22;21401;50.878;8.050;2022-10-16T14:17:57;18.00;99.90
35277;DHT22;21401;50.878;8.050;2022-10-16T14:20:28;18.00;99.90
35277;DHT22;21401;50.878;8.050;2022-10-16T14:23:03;18.00;99.90
35277;DHT22;21401;50.878;8.050;2022-10-16T14:25:31;18.10;99.90
35277;DHT22;21401;50.878;8.050;2022-10-16T14:28:17;18.10;99.90
35277;DHT22;21401;50.878;8.050;2022-10-16T14:30:57;18.20;99.90
35277;DHT22;21401;50.878;8.050;2022-10-16T14:36:10;18.30;99.90
35277;DHT22;21401;50.878;8.050;2022-10-16T14:38:48;18.20;99.90
35277;DHT22;21401;50.878;8.050;2022-10-16T14:41:14;18.10;99.90
35277;DHT22;21401;50.878;8.050;2022-10-16T14:43:42;18.00;99.90
35277;DHT22;21401;50.878;8.050;2022-10-16T14:46:27;18.00;99.90
35277;DHT22;21401;50.878;8.050;2022-10-16T14:49:03;18.00;99.90
35277;DHT22;21401;50.878;8.050;2022-10-16T14:51:30;18.00;99.90
35277;DHT22;21401;50.878;8.050;2022-10-16T14:53:56;18.00;99.90
35277;DHT22;21401;50.878;8.050;2022-10-16T14:56:23;18.00;99.90
35277;DHT22;21401;50.878;8.050;2022-10-16T14:58:52;18.10;99.90
35277;DHT22;21401;50.878;8.050;2022-10-16T15:01:21;18.00;99.90
35277;DHT22;21401;50.878;8.050;2022-10-16T15:03:47;17.90;99.90
35277;DHT22;21401;50.878;8.050;2022-10-16T15:06:16;17.90;99.90
35277;DHT22;21401;50.878;8.050;2022-10-16T15:08:42;17.90;99.90
35277;DHT22;21401;50.878;8.050;2022-10-16T15:11:16;17.90;99.90
35277;DHT22;21401;50.878;8.050;2022-10-16T15:13:41;17.90;99.90
35277;DHT22;21401;50.878;8.050;2022-10-16T15:16:17;17.80;99.90
35277;DHT22;21401;50.878;8.050;2022-10-16T15:18:45;17.80;99.90
35277;DHT22;21401;50.878;8.050;2022-10-16T15:21:28;17.80;99.90
35277;DHT22;21401;50.878;8.050;2022-10-16T15:23:57;17.80;99.90
35277;DHT22;21401;50.878;8.050;2022-10-16T15:26:27;17.80;99.90
35277;DHT22;21401;50.878;8.050;2022-10-16T15:28:53;17.70;99.90
35277;DHT22;21401;50.878;8.050;2022-10-16T15:31:19;17.70;99.90
35277;DHT22;21401;50.878;8.050;2022-10-16T15:33:50;17.70;99.90
35277;DHT22;21401;50.878;8.050;2022-10-16T15:36:27;17.60;99.90
35277;DHT22;21401;50.878;8.050;2022-10-16T15:38:53;17.60;99.90
35277;DHT22;21401;50.878;8.050;2022-10-16T15:41:19;17.60;99.90
35277;DHT22;21401;50.878;8.050;2022-10-16T15:43:47;17.60;99.90
35277;DHT22;21401;50.878;8.050;2022-10-16T15:46:13;17.50;99.90
35277;DHT22;21401;50.878;8.050;2022-10-16T15:48:44;17.50;99.90
35277;DHT22;21401;50.878;8.050;2022-10-16T15:51:09;17.50;99.90
35277;DHT22;21401;50.878;8.050;2022-10-16T15:53:36;17.50;99.90
35277;DHT22;21401;50.878;8.050;2022-10-16T15:56:06;17.40;99.90
35277;DHT22;21401;50.878;8.050;2022-10-16T15:58:32;17.40;99.90
35277;DHT22;21401;50.878;8.050;2022-10-16T16:01:02;17.30;99.90
35277;DHT22;21401;50.878;8.050;2022-10-16T16:03:29;17.20;99.90
35277;DHT22;21401;50.878;8.050;2022-10-16T16:05:57;17.10;99.90
35277;DHT22;21401;50.878;8.050;2022-10-16T16:08:23;17.10;99.90
35277;DHT22;21401;50.878;8.050;2022-10-16T16:11:09;17.10;99.90
35277;DHT22;21401;50.878;8.050;2022-10-16T16:13:35;17.00;99.90
35277;DHT22;21401;50.878;8.050;2022-10-16T16:16:06;17.00;99.90
35277;DHT22;21401;50.878;8.050;2022-10-16T16:18:32;17.00;99.90
35277;DHT22;21401;50.878;8.050;2022-10-16T16:20:58;17.00;99.90
35277;DHT22;21401;50.878;8.050;2022-10-16T16:23:23;16.90;99.90
35277;DHT22;21401;50.878;8.050;2022-10-16T16:26:24;16.80;99.90
35277;DHT22;21401;50.878;8.050;2022-10-16T16:28:52;16.80;99.90
35277;DHT22;21401;50.878;8.050;2022-10-16T16:31:18;16.80;99.90
35277;DHT22;21401;50.878;8.050;2022-10-16T16:33:44;16.70;99.90
35277;DHT22;21401;50.878;8.050;2022-10-16T16:36:09;16.70;99.90
35277;DHT22;21401;50.878;8.050;2022-10-16T16:38:37;16.60;99.90
35277;DHT22;21401;50.878;8.050;2022-10-16T16:41:17;16.50;99.90
35277;DHT22;21401;50.878;8.050;2022-10-16T16:43:43;16.50;99.90
35277;DHT22;21401;50.878;8.050;2022-10-16T16:46:09;16.50;99.90
35277;DHT22;21401;50.878;8.050;2022-10-16T16:48:37;16.40;99.90
35277;DHT22;21401;50.878;8.050;2022-10-16T16:51:08;16.30;99.90
35277;DHT22;21401;50.878;8.050;2022-10-16T16:53:38;16.30;99.90
35277;DHT22;21401;50.878;8.050;2022-10-16T16:56:05;16.30;99.90
35277;DHT22;21401;50.878;8.050;2022-10-16T16:58:33;16.20;99.90
35277;DHT22;21401;50.878;8.050;2022-10-16T17:01:00;16.20;99.90
35277;DHT22;21401;50.878;8.050;2022-10-16T17:03:32;16.20;99.90
35277;DHT22;21401;50.878;8.050;2022-10-16T17:06:06;16.20;99.90
35277;DHT22;21401;50.878;8.050;2022-10-16T17:08:35;16.20;99.90
35277;DHT22;21401;50.878;8.050;2022-10-16T17:11:02;16.20;99.90
35277;DHT22;21401;50.878;8.050;2022-10-16T17:13:30;16.20;99.90
35277;DHT22;21401;50.878;8.050;2022-10-16T17:15:58;16.20;99.90
35277;DHT22;21401;50.878;8.050;2022-10-16T17:18:24;16.20;99.90
35277;DHT22;21401;50.878;8.050;2022-10-16T17:20:52;16.20;99.90
35277;DHT22;21401;50.878;8.050;2022-10-16T17:23:19;16.10;99.90
35277;DHT22;21401;50.878;8.050;2022-10-16T17:25:45;16.10;99.90
35277;DHT22;21401;50.878;8.050;2022-10-16T17:28:12;16.20;99.90
35277;DHT22;21401;50.878;8.050;2022-10-16T17:30:41;16.10;99.90
35277;DHT22;21401;50.878;8.050;2022-10-16T17:33:07;16.10;99.90
35277;DHT22;21401;50.878;8.050;2022-10-16T17:35:42;16.10;99.90
35277;DHT22;21401;50.878;8.050;2022-10-16T17:38:09;16.10;99.90
35277;DHT22;21401;50.878;8.050;2022-10-16T17:40:38;16.20;99.90
35277;DHT22;21401;50.878;8.050;2022-10-16T17:43:03;16.10;99.90
35277;DHT22;21401;50.878;8.050;2022-10-16T17:45:29;16.10;99.90
35277;DHT22;21401;50.878;8.050;2022-10-16T17:47:56;15.90;99.90
35277;DHT22;21401;50.878;8.050;2022-10-16T17:50:22;15.90;99.90